Scarborough, ME (04070)

9:39 AM EST on November 28, 2014 (GMT -0500)
Eastern Village - Scarborough | Change Station
CLOSE
Current Station
Personal Weather Station
Location: Scarborough, ME
Elevation: 82 ft
Nearby Weather Stations

Elev 82 ft 43.58 °N, 70.34 °W | Updated 1 second ago

Snow
Snow
26.0 °F
Feels Like 26 °F
N
2.0
Wind Variable Wind from NNE
Gusts 5.0 mph

Today
High -- | Low -- °F
--% Chance of Precip.
Yesterday
High -- | Low -- °F
Precip. -- in
6:51 AM 4:07 PM
Waxing Crescent, 41% visible
Pressure 30.07 in
Visibility 3.0 miles
Clouds Few 1200 ft
Mostly Cloudy 5000 ft
Overcast 6000 ft
Windchill 26 °F
Dew Point 21 °F
Humidity 81%
Rainfall 0.00 in
Snow Depth Not available.
UV 0 out of 12
Pollen .10 out of 12
Air Quality Not available.
Flu Activity Not available.
SPECI KPWM 281418Z 01004KT 3SM -SN FEW012 BKN050 OVC060 M03/M06 A3007 RMK AO2 P0000 T10331061

More Conditions Fewer Conditions

Pressure 30.07 in
Visibility 3.0 miles
Clouds Few 1200 ft
Mostly Cloudy 5000 ft
Overcast 6000 ft
Windchill 26 °F
Dew Point 21 °F
Humidity 81%
Rainfall 0.00 in
Snow Depth Not available.
UV 0 out of 12
Pollen .10 out of 12
Air Quality Not available.
Flu Activity Not available.
SPECI KPWM 281418Z 01004KT 3SM -SN FEW012 BKN050 OVC060 M03/M06 A3007 RMK AO2 P0000 T10331061

More Conditions Fewer Conditions

10-Day Weather Forecast

Almanac

Astronomy

Nov. 28, 2014 Rise Set
Actual Time
Civil Twilight
Nautical Twilight
Astronomical Twilight
Moon
Length of Visible Light
Length of Day
Tomorrow will be .
, % of the Moon is Illuminated

Today's Extremes

State Highs State Lows

Community

WunderPhotos

Upload Photos

1,774,215 photos uploaded!

WunderBlogs® & News

Nearby

Air Quality

  Air Quality AQ Index Pollutant
Not available.

Snow Depth

Station Depth Elevation

Earthquake Activity

City Distance Mag. Time & Date
Minimum magnitude displayed is 2.5.

Coastal Water Temperatures

Place Temperature

Nearby Weather Stations